Latest Coastal Weather Observations for Esperance

IDW60701

Issued at 1:12 am WST Tuesday 4 August 2015 (issued every 10 minutes, with the page automatically refreshed every 10 minutes)

About coastal observations | Map of coastal stations | Coastal observations for WA | Marine services | Other Formats
Station Details ID: 009789 Name: ESPERANCE Lat: -33.83 Lon: 121.89 Height: 25.0 m
Data from the previous 72 hours. | See also: Recent months at Esperance
Date/Time
WST
Temp

°C
Wind Pressure Rain
since 9am
mm
Weather Cloud Vis
km
Sea
Height
m
Swell
Dir
 
Speed
knots
Gust
knots
hPa Trend Height
m
Period
s
Dir
04/01:00am 6.5 NW 4 5 1033.8 - 0.0 - Partly cloudy 10 - - - -
04/12:30am 6.7 NW 3 4 1034.0 - 0.0 - - 10 - - - -
04/12:00am 7.1 NNW 4 5 1034.0 F 0.0 - - 10 - - - -
 
Date/Time
WST
Temp

°C
Wind Pressure Rain
since 9am
mm
Weather Cloud Vis
km
Sea
Height
m
Swell
Dir
 
Speed
knots
Gust
knots
hPa Trend Height
m
Period
s
Dir
03/11:30pm 7.2 NW 4 5 1034.1 - 0.0 - - 10 - - - -
03/11:00pm 7.5 NW 4 4 1034.2 - 0.0 - - 10 - - - -
03/10:30pm 7.8 NW 3 4 1034.4 - 0.0 - - 10 - - - -
03/10:00pm 8.2 NNW 4 4 1034.5 - 0.0 - - 10 - - - -
03/09:30pm 8.3 NNW 4 5 1034.8 - 0.0 - - 10 - - - -
03/09:00pm 9.2 NNW 4 4 1034.9 S 0.0 - Mostly clear 10 - - - -
03/08:30pm 9.9 NW 5 5 1034.9 - 0.0 - Partly cloudy 10 - - - -
03/08:00pm 10.9 WNW 5 6 1034.8 - 0.0 - Mostly clear 10 - - - -
03/07:30pm 11.2 WNW 5 5 1034.6 - 0.0 - Mostly clear 10 - - - -
03/07:00pm 11.6 WNW 4 5 1034.6 - 0.0 - Mostly clear 10 - - - -
03/06:30pm 12.6 CALM 0 0 1034.3 - 0.0 - Mostly clear 10 - - - -
03/06:00pm 12.9 SSW 4 5 1034.1 F 0.0 Fine Mostly clear 30 - - - -
03/05:30pm 13.2 S 4 4 1033.7 - 0.0 - Mostly clear 10 - - - -
03/05:00pm 13.5 S 5 7 1033.6 - 0.0 - Mostly clear 10 - - - -
03/04:30pm 14.2 S 6 8 1033.6 - 0.0 - Mostly clear 10 - - - -
03/04:00pm 14.6 S 6 9 1033.8 - 0.0 - Mostly clear 10 - - - -
03/03:30pm 15.1 SSW 6 8 1033.9 - 0.0 - Mostly clear 10 - - - -
03/03:00pm 15.0 S 6 9 1033.8 F 0.0 Fine Mostly clear 30 - - - -
03/02:30pm 14.7 S 6 9 1033.6 - 0.0 - Mostly clear 10 - - - -
03/02:00pm 14.3 S 6 9 1033.6 - 0.0 - Mostly clear 10 - - - -
03/01:30pm 14.4 S 5 6 1034.0 - 0.0 - Mostly clear 10 - - - -
03/01:00pm 15.3 SSW 4 8 1034.1 - 0.0 - Mostly clear 10 - - - -
03/12:30pm 14.9 SSE 4 5 1034.4 - 0.0 - Mostly clear 10 - - - -
03/12:00pm 14.3 SSW 5 7 1035.1 R 0.0 Showers Partly cloudy 20 - - - -
03/11:30am 15.9 NW 8 10 1035.4 - 0.0 - Mostly clear 10 - - - -
03/11:00am 14.4 NW 6 7 1035.8 - 0.0 - Mostly clear 10 - - - -
03/10:30am 14.2 NW 6 8 1036.1 - 0.0 - Mostly clear 10 - - - -
03/10:00am 13.3 NNW 5 7 1036.3 - 0.0 - Mostly clear 10 - - - -
03/09:30am 12.5 NNW 6 7 1036.3 - 0.0 - Mostly clear 10 - - - -
03/09:07am 11.0 NW 6 8 1036.0 - 0.0 - Mostly clear 10 - - - -
03/09:00am 10.8 NW 6 7 1036.0 R 1.0 Distant precip. Mostly cloudy 25 - - - -
03/08:30am 10.5 NW 4 6 1035.7 - 0.6 Drizzle Mostly clear 8 - - - -
03/08:00am 9.1 NW 3 6 1035.6 - 0.6 - Mostly clear 10 - - - -
03/07:30am 8.6 NNW 6 7 1035.5 - 0.6 - Mostly clear 10 - - - -
03/07:11am 8.5 NW 5 7 1035.5 - 0.6 - Mostly clear 10 - - - -
03/07:00am 8.5 WNW 5 5 1035.4 - 0.6 - Mostly clear 6 - - - -
03/06:30am 8.7 WNW 3 5 1035.1 - 0.4 Showers Partly cloudy 7 - - - -
03/06:00am 9.0 WNW 7 11 1034.6 R 0.4 Distant precip. Mostly cloudy 25 - - - -
03/05:30am 9.1 WNW 6 7 1034.3 - 0.4 - Partly cloudy 10 - - - -
03/05:00am 9.2 WNW 6 8 1034.0 - 0.4 - Partly cloudy 10 - - - -
03/04:30am 9.2 WNW 7 9 1033.7 - 0.4 - Partly cloudy 10 - - - -
03/04:00am 9.3 WNW 6 7 1033.8 - 0.4 - Partly cloudy 10 - - - -
03/03:30am 9.3 WNW 5 5 1033.5 - 0.4 - Partly cloudy 10 - - - -
03/03:00am 9.3 NW 5 6 1033.6 F 0.4 - Mostly cloudy 10 - - - -
03/02:30am 9.4 WNW 5 7 1033.9 - 0.4 - Partly cloudy 10 - - - -
03/02:00am 9.5 NW 5 6 1034.1 - 0.4 - Partly cloudy 10 - - - -
03/01:30am 9.5 NW 5 7 1034.4 - 0.4 - Partly cloudy 10 - - - -
03/01:00am 9.6 NW 5 7 1034.5 - 0.4 - Partly cloudy 10 - - - -
03/12:30am 9.3 NW 5 7 1034.5 - 0.4 - Partly cloudy 10 - - - -
03/12:00am 9.5 NNW 4 5 1034.6 R 0.4 Recent precip. Partly cloudy 10 - - - -
 
Date/Time
WST
Temp

°C
Wind Pressure Rain
since 9am
mm
Weather Cloud Vis
km
Sea
Height
m
Swell
Dir
 
Speed
knots
Gust
knots
hPa Trend Height
m
Period
s
Dir
02/11:37pm 9.5 NNW 4 5 1034.6 - 0.4 - Partly cloudy 10 - - - -
02/11:30pm 9.6 NW 5 7 1034.6 - 0.4 - Partly cloudy 9 - - - -
02/11:24pm 9.7 WNW 5 7 1034.6 - 0.2 - Partly cloudy 7 - - - -
02/11:00pm 9.2 NW 4 6 1034.6 - 0.2 - Partly cloudy 10 - - - -
02/10:30pm 9.1 NNW 6 7 1034.5 - 0.2 - Partly cloudy 10 - - - -
02/10:00pm 9.5 NNW 5 6 1034.7 - 0.2 - Partly cloudy 10 - - - -
02/09:30pm 10.4 NNW 4 6 1034.5 - 0.2 - Partly cloudy 10 - - - -
02/09:00pm 10.6 NW 3 5 1034.4 R 0.2 - - 10 - - - -
02/08:30pm 11.3 SSW 3 7 1034.3 - 0.2 - Partly cloudy 10 - - - -
02/08:23pm 11.4 SSE 4 7 1034.3 - 0.2 Showers Mostly clear 7 - - - -
02/08:00pm 10.9 WSW 4 7 1034.1 - 0.2 - Partly cloudy 10 - - - -
02/07:30pm 10.9 W 3 4 1033.9 - 0.2 - Mostly clear 10 - - - -
02/07:00pm 11.5 W 4 5 1033.7 - 0.2 - Mostly clear 10 - - - -
02/06:30pm 11.9 W 5 6 1033.3 - 0.2 - Mostly clear 10 - - - -
02/06:00pm 12.3 SW 6 6 1032.9 R 0.2 Fine Partly cloudy 25 - - - -
02/05:30pm 12.2 SW 5 6 1032.6 - 0.2 - Mostly clear 10 - - - -
02/05:00pm 12.5 SW 5 6 1032.5 - 0.2 - Mostly clear 10 - - - -
02/04:30pm 13.3 SSW 6 8 1032.3 - 0.2 - Mostly clear 10 - - - -
02/04:00pm 13.6 SW 6 9 1032.3 - 0.2 - Mostly clear 10 - - - -
02/03:30pm 14.4 SSW 7 10 1032.2 - 0.2 - Mostly clear 10 - - - -
02/03:00pm 13.7 SSW 7 9 1032.1 R 0.2 Fine Partly cloudy 25 - - - -
02/02:30pm 13.8 SSW 8 12 1032.1 - 0.2 - Mostly clear 10 - - - -
02/02:00pm 14.2 SW 7 12 1031.9 - 0.2 - Mostly clear 10 - - - -
02/01:30pm 14.0 SSW 8 12 1031.9 - 0.2 - Mostly clear 10 - - - -
02/01:00pm 13.9 SSW 9 15 1031.9 - 0.2 - Partly cloudy 10 - - - -
02/12:30pm 14.4 SSW 10 14 1032.0 - 0.2 - Mostly clear 10 - - - -
02/12:00pm 13.6 SW 5 12 1032.2 R 0.2 Distant precip. Partly cloudy 20 - - - -
02/11:30am 14.3 WSW 6 8 1032.3 - 0.2 - Mostly clear 10 - - - -
02/11:00am 14.0 WSW 5 8 1032.4 - 0.0 - Mostly clear 10 - - - -
02/10:30am 13.6 SW 7 11 1032.7 - 0.0 Showers Mostly clear 10 - - - -
02/10:00am 13.9 WNW 6 9 1032.5 - 0.0 - Partly cloudy 10 - - - -
02/09:30am 13.4 NW 8 10 1032.3 - 0.0 - Mostly clear 10 - - - -
02/09:00am 12.1 WNW 8 10 1032.3 R 0.0 Distant precip. Mostly clear 30 - - - -
02/08:30am 10.5 NW 7 8 1032.1 - 0.0 - Mostly clear 10 - - - -
02/08:00am 10.5 WNW 7 10 1031.8 - 0.0 - Mostly clear 10 - - - -
02/07:30am 9.7 WNW 7 9 1031.4 - 0.0 - Mostly clear 10 - - - -
02/07:00am 9.7 NW 5 7 1031.0 - 0.0 - Mostly clear 10 - - - -
02/06:30am 9.5 WNW 6 8 1030.5 - 0.0 - Mostly clear 10 - - - -
02/06:00am 9.6 WNW 6 10 1030.3 F 0.0 Fine Mostly cloudy 30 - - - -
02/05:30am 9.6 WNW 6 9 1030.2 - 0.0 - Cloudy 10 - - - -
02/05:00am 9.8 WNW 8 10 1030.1 - 0.0 - Cloudy 10 - - - -
02/04:30am 9.8 NW 7 8 1029.8 - 0.0 - Cloudy 10 - - - -
02/04:00am 9.7 NW 6 8 1029.8 - 0.0 - Cloudy 10 - - - -
02/03:30am 9.7 WNW 6 8 1029.7 - 0.0 - Cloudy 10 - - - -
02/03:00am 9.9 W 4 5 1029.8 R 0.0 - Cloudy 10 - - - -
02/02:30am 9.8 NW 6 8 1029.8 - 0.0 - Cloudy 10 - - - -
02/02:00am 9.4 NW 7 9 1029.8 - 0.0 - Partly cloudy 10 - - - -
02/01:30am 9.5 WNW 7 9 1029.9 - 0.0 - Partly cloudy 10 - - - -
02/01:00am 10.4 S 5 7 1029.8 - 0.0 - Partly cloudy 10 - - - -
02/12:30am 9.9 WSW 4 7 1029.7 - 0.0 - Partly cloudy 10 - - - -
02/12:00am 10.1 W 5 6 1029.6 R 0.0 - Cloudy 10 - - - -
 
Date/Time
WST
Temp

°C
Wind Pressure Rain
since 9am
mm
Weather Cloud Vis
km
Sea
Height
m
Swell
Dir
 
Speed
knots
Gust
knots
hPa Trend Height
m
Period
s
Dir
01/11:30pm 10.3 W 5 7 1029.6 - 0.0 - Partly cloudy 10 - - - -
01/11:00pm 10.1 NW 5 6 1029.5 - 0.0 - Partly cloudy 10 - - - -
01/10:30pm 10.8 W 4 6 1029.4 - 0.0 - Partly cloudy 10 - - - -
01/10:00pm 11.7 S 6 10 1029.3 - 0.0 - Cloudy 10 - - - -
01/09:30pm 11.9 S 4 5 1029.2 - 0.0 - Cloudy 10 - - - -
01/09:00pm 11.6 S 6 10 1029.1 R 0.0 - Mostly cloudy 10 - - - -
01/08:30pm 11.2 S 3 5 1029.1 - 0.0 - Cloudy 10 - - - -
01/08:00pm 11.4 SSW 5 7 1029.0 - 0.0 - Mostly cloudy 10 - - - -
01/07:30pm 11.6 SSE 8 13 1028.6 - 0.0 - Mostly cloudy 10 - - - -
01/07:00pm 11.5 SSW 5 8 1028.2 - 0.0 - Mostly clear 10 - - - -
01/06:30pm 11.7 S 6 8 1028.0 - 0.0 - Mostly clear 10 - - - -
01/06:00pm 12.0 S 8 10 1027.5 R 0.0 Haze Cloudy 15 - - - -
01/05:30pm 12.0 SSE 7 12 1027.1 - 0.0 - Mostly clear 10 - - - -
01/05:00pm 11.9 SSE 7 11 1026.8 - 0.0 - Mostly clear 10 - - - -
01/04:30pm 12.1 SSE 9 13 1026.5 - 0.0 - Cloudy 10 - - - -
01/04:00pm 12.3 SSE 10 13 1026.2 - 0.0 - Mostly cloudy 10 - - - -
01/03:30pm 12.7 S 9 12 1025.7 - 0.0 - Mostly cloudy 10 - - - -
01/03:00pm 12.8 SSE 11 15 1025.3 R 0.0 Haze Cloudy 20 - - - -
01/02:30pm 12.9 S 11 15 1024.9 - 0.0 - Cloudy 10 - - - -
01/02:00pm 12.9 SSE 11 15 1024.6 - 0.0 - Mostly cloudy 10 - - - -
01/01:30pm 13.2 SSE 11 15 1024.3 - 0.0 - Mostly cloudy 10 - - - -
01/01:00pm 13.3 SSE 11 17 1024.2 - 0.0 - Mostly clear 10 - - - -
01/12:30pm 13.5 SSE 12 16 1024.3 - 0.0 - Mostly clear 10 - - - -
01/12:00pm 13.3 SSE 14 17 1024.5 R 0.0 Haze Mostly cloudy 20 - - - -
01/11:30am 13.5 SSE 12 18 1024.6 - 0.0 - Mostly clear 10 - - - -
01/11:00am 13.1 SSE 15 20 1024.6 - 0.0 - Mostly clear 10 - - - -
01/10:30am 13.3 SE 13 18 1024.6 - 0.0 - Mostly clear 10 - - - -
01/10:00am 13.1 SE 13 17 1024.4 - 0.0 - Mostly clear 10 - - - -
01/09:30am 12.9 SE 13 17 1024.2 - 0.0 - Mostly clear 10 - - - -
01/09:00am 12.4 SE 14 18 1023.7 R 14.4 Haze Mostly cloudy 20 - - - -
01/08:30am 12.3 SE 14 20 1023.3 - 14.4 - Mostly cloudy 10 - - - -
01/08:00am 12.3 SE 15 19 1022.8 - 14.4 - Mostly cloudy 10 - - - -
01/07:30am 12.2 SE 15 20 1022.4 - 14.4 - Cloudy 10 - - - -
01/07:00am 12.2 SE 16 23 1021.6 - 14.4 - Cloudy 10 - - - -
01/06:30am 12.2 SE 15 21 1021.3 - 14.4 - Mostly clear 10 - - - -
01/06:00am 12.3 SE 17 25 1020.7 R 14.4 Haze Cloudy 15 - - - -
01/05:30am 12.4 SE 14 21 1020.2 - 14.4 - Partly cloudy 10 - - - -
01/05:00am 12.2 SE 15 21 1019.7 - 14.4 - Cloudy 10 - - - -
01/04:30am 12.5 SE 15 21 1019.7 - 14.4 - Cloudy 10 - - - -
01/04:00am 12.3 SE 16 23 1019.6 - 14.4 - Partly cloudy 10 - - - -
01/03:30am 12.4 SE 16 23 1019.5 - 14.4 - Partly cloudy 10 - - - -
01/03:00am 12.7 SE 16 22 1019.5 R 14.4 - Cloudy 10 - - - -
01/02:35am 12.9 SE 15 25 1019.2 - 14.4 - Partly cloudy 10 - - - -
01/02:30am 13.0 SE 15 22 1019.2 - 14.4 - Cloudy 10 - - - -
01/02:03am 12.7 SE 17 22 1019.1 - 14.4 - Partly cloudy 10 - - - -
01/02:00am 12.6 SE 17 22 1019.0 - 14.4 - Partly cloudy 9 - - - -
01/01:45am 12.5 SE 14 21 1019.1 - 14.4 - Partly cloudy 7 - - - -
01/01:30am 13.1 SE 15 21 1019.2 - 14.4 - Partly cloudy 10 - - - -

Other Formats:

Comma delimited format used in spreadsheet applications
http://www.bom.gov.au/fwo/IDW60701/IDW60701.94638.axf

JavaScript Object Notation format (JSON) in row-major order
http://www.bom.gov.au/fwo/IDW60701/IDW60701.94638.json